createdAt,value
2022-08-07T00:03:08.971Z,101349.72
2022-08-07T00:08:26.347Z,101348.84
2022-08-07T00:13:40.529Z,101335.13
2022-08-07T00:18:49.591Z,101344.09
2022-08-07T00:23:55.477Z,101328.63
2022-08-07T00:29:00.912Z,101333.97
2022-08-07T00:34:08.482Z,101331.41
2022-08-07T00:39:16.486Z,101325.66
2022-08-07T00:44:20.154Z,101323.13
2022-08-07T00:50:20.775Z,101305.78
2022-08-07T00:54:54.787Z,101304.09
2022-08-07T01:05:33.193Z,101295.19
2022-08-07T01:10:47.663Z,101287.84
2022-08-07T01:16:11.439Z,101274.59
2022-08-07T01:21:33.378Z,101272.53
2022-08-07T01:26:43.009Z,101271.63
2022-08-07T01:32:00.116Z,101264.44
2022-08-07T01:37:05.603Z,101279.13
2022-08-07T01:42:39.753Z,101273.09
2022-08-07T01:48:18.455Z,101267.88
2022-08-07T01:54:08.435Z,101267.06
2022-08-07T01:59:00.382Z,101269.84
2022-08-07T02:04:31.451Z,101262.91
2022-08-07T02:09:53.017Z,101252.38
2022-08-07T02:15:07.030Z,101254.19
2022-08-07T02:20:23.912Z,101254.94
2022-08-07T02:26:32.022Z,101256.00
2022-08-07T02:31:28.320Z,101249.88
2022-08-07T02:36:42.042Z,101254.22
2022-08-07T02:41:57.752Z,101262.88
2022-08-07T02:47:09.154Z,101259.41
2022-08-07T02:53:12.856Z,101267.59
2022-08-07T02:58:22.162Z,101251.47
2022-08-07T03:03:56.493Z,101270.09
2022-08-07T03:09:11.896Z,101259.56
2022-08-07T03:14:24.292Z,101266.59
2022-08-07T03:19:42.801Z,101262.97
2022-08-07T03:25:03.246Z,101262.06
2022-08-07T03:30:16.932Z,101270.34
2022-08-07T03:35:44.017Z,101261.44
2022-08-07T03:41:03.658Z,101254.22
2022-08-07T03:52:17.669Z,101278.34
2022-08-07T03:58:34.144Z,101281.34
2022-08-07T04:03:10.529Z,101280.44
2022-08-07T04:08:26.600Z,101281.97
2022-08-07T04:14:09.569Z,101273.13
2022-08-07T04:19:01.315Z,101277.09
2022-08-07T04:24:30.758Z,101288.63
2022-08-07T04:29:58.441Z,101292.47
2022-08-07T04:35:35.002Z,101301.00
2022-08-07T04:40:51.198Z,101312.38
2022-08-07T04:46:59.731Z,101314.22
2022-08-07T04:52:27.814Z,101315.75
2022-08-07T04:58:13.248Z,101324.81
2022-08-07T05:04:07.160Z,101323.66
2022-08-07T05:10:00.902Z,101312.97
2022-08-07T05:15:31.715Z,101330.16
2022-08-07T05:20:43.702Z,101331.44
2022-08-07T05:26:13.742Z,101335.84
2022-08-07T05:31:24.003Z,101340.59
2022-08-07T05:36:57.110Z,101342.22
2022-08-07T05:42:34.448Z,101341.41
2022-08-07T05:48:01.331Z,101347.13
2022-08-07T05:54:12.002Z,101353.75
2022-08-07T05:59:02.679Z,101351.53
2022-08-07T06:04:17.464Z,101359.66
2022-08-07T06:10:04.053Z,101361.47
2022-08-07T06:14:51.443Z,101368.91
2022-08-07T06:20:04.283Z,101361.91
2022-08-07T06:25:13.749Z,101380.50
2022-08-07T06:30:36.103Z,101388.72
2022-08-07T06:36:16.502Z,101393.69
2022-08-07T06:42:18.218Z,101395.53
2022-08-07T06:47:57.543Z,101401.06
2022-08-07T06:55:27.139Z,101397.16
2022-08-07T07:00:11.759Z,101403.88
2022-08-07T07:10:47.502Z,101414.81
2022-08-07T07:16:10.109Z,101413.16
2022-08-07T07:22:05.491Z,101424.63
2022-08-07T07:27:19.646Z,101419.09
2022-08-07T07:32:32.659Z,101411.88
2022-08-07T07:37:59.162Z,101423.81
2022-08-07T07:43:15.066Z,101427.66
2022-08-07T07:48:35.913Z,101420.94
2022-08-07T07:53:51.416Z,101428.56
2022-08-07T07:59:06.407Z,101430.44
2022-08-07T08:04:12.413Z,101431.44
2022-08-07T08:09:19.920Z,101429.31
2022-08-07T08:14:30.725Z,101431.78
2022-08-07T08:20:17.774Z,101423.88
2022-08-07T08:25:42.918Z,101436.91
2022-08-07T08:30:58.667Z,101429.84
2022-08-07T08:36:03.139Z,101432.34
2022-08-07T08:41:58.137Z,101424.72
2022-08-07T08:47:30.647Z,101436.31
2022-08-07T08:52:53.695Z,101437.47
2022-08-07T08:58:28.960Z,101434.69
2022-08-07T09:04:28.812Z,101437.25
2022-08-07T09:09:57.214Z,101442.84
2022-08-07T09:16:25.159Z,101447.81
2022-08-07T09:21:34.152Z,101440.28
2022-08-07T09:27:17.291Z,101439.97
2022-08-07T09:33:16.403Z,101445.69
2022-08-07T09:39:27.429Z,101448.88
2022-08-07T09:52:10.402Z,101452.75
2022-08-07T09:57:37.625Z,101447.13
2022-08-07T10:04:06.005Z,101452.00
2022-08-07T10:09:59.011Z,101448.50
2022-08-07T10:15:44.515Z,101448.38
2022-08-07T10:22:12.609Z,101447.97
2022-08-07T10:27:53.949Z,101447.22
2022-08-07T10:34:13.928Z,101440.69
2022-08-07T10:45:57.783Z,101441.41
2022-08-07T10:51:57.277Z,101426.88
2022-08-07T10:57:34.508Z,101423.63
2022-08-07T11:03:10.841Z,101425.59
2022-08-07T11:08:51.040Z,101420.22
2022-08-07T11:14:45.667Z,101423.09
2022-08-07T11:20:05.342Z,101413.03
2022-08-07T11:25:49.857Z,101422.59
2022-08-07T11:31:23.663Z,101416.97
2022-08-07T11:37:03.114Z,101407.72
2022-08-07T11:42:22.174Z,101406.53
2022-08-07T11:48:03.323Z,101401.47
2022-08-07T11:54:14.231Z,101392.84
2022-08-07T12:00:10.575Z,101392.84
2022-08-07T12:05:58.370Z,101386.47
2022-08-07T12:11:21.156Z,101384.81
2022-08-07T12:16:48.440Z,101382.78
2022-08-07T12:22:39.260Z,101373.22
2022-08-07T12:28:08.624Z,101375.13
2022-08-07T12:39:41.134Z,101367.22
2022-08-07T12:44:39.423Z,101354.38
2022-08-07T12:50:49.198Z,101351.25
2022-08-07T12:56:29.576Z,101343.03
2022-08-07T13:01:57.475Z,101347.00
2022-08-07T13:20:27.865Z,101322.53
2022-08-07T13:25:50.696Z,101322.94
2022-08-07T13:31:54.800Z,101320.03
2022-08-07T13:37:28.380Z,101315.94
2022-08-07T13:42:39.383Z,101295.13
2022-08-07T13:48:06.034Z,101307.97
2022-08-07T13:53:21.982Z,101297.91
2022-08-07T13:59:01.303Z,101304.06
2022-08-07T14:04:14.421Z,101291.72
2022-08-07T14:10:02.605Z,101272.44
2022-08-07T14:15:32.020Z,101280.03
2022-08-07T14:20:44.240Z,101277.97
2022-08-07T14:26:29.961Z,101274.69
2022-08-07T14:31:43.028Z,101265.38
2022-08-07T14:37:03.123Z,101250.41
2022-08-07T14:42:20.792Z,101236.78
2022-08-07T14:53:07.408Z,101228.28
2022-08-07T14:58:24.738Z,101220.28
2022-08-07T15:03:51.372Z,101234.75
2022-08-07T15:14:57.748Z,101209.47
2022-08-07T15:20:32.663Z,101215.56
2022-08-07T15:25:46.311Z,101216.81
2022-08-07T15:31:04.819Z,101240.53
2022-08-07T15:36:13.795Z,101258.94
2022-08-07T15:42:46.897Z,101275.66
2022-08-07T15:53:53.137Z,101274.88
2022-08-07T15:59:06.011Z,101268.38
2022-08-07T16:04:20.736Z,101280.66
2022-08-07T16:10:00.257Z,101296.72
2022-08-07T16:15:57.883Z,101303.91
2022-08-07T16:22:02.651Z,101326.38
2022-08-07T16:27:24.468Z,101337.63
2022-08-07T16:32:36.634Z,101334.41
2022-08-07T16:38:16.667Z,101353.69
2022-08-07T16:44:03.728Z,101350.47
2022-08-07T16:50:20.671Z,101353.28
2022-08-07T16:55:47.865Z,101356.91
2022-08-07T17:01:26.208Z,101346.03
2022-08-07T17:07:03.186Z,101336.41
2022-08-07T17:12:53.013Z,101330.38
2022-08-07T17:18:26.027Z,101327.94
2022-08-07T17:23:55.012Z,101313.44
2022-08-07T17:30:13.937Z,101299.38
2022-08-07T17:35:51.707Z,101302.56
2022-08-07T17:42:04.955Z,101310.56
2022-08-07T17:53:00.609Z,101301.75
2022-08-07T17:58:20.729Z,101297.31
2022-08-07T18:04:31.048Z,101294.91
2022-08-07T18:10:04.498Z,101266.44
2022-08-07T18:16:04.587Z,101262.69
2022-08-07T18:22:00.539Z,101257.81
2022-08-07T18:27:39.102Z,101244.88
2022-08-07T18:33:27.793Z,101255.22
2022-08-07T18:40:06.344Z,101243.09
2022-08-07T18:45:43.142Z,101204.06
2022-08-07T18:51:15.509Z,101209.22
2022-08-07T18:57:30.771Z,101222.41
2022-08-07T19:03:12.321Z,101190.69
2022-08-07T19:08:36.645Z,101197.03
2022-08-07T19:14:39.348Z,101223.41
2022-08-07T19:20:06.876Z,101215.28
2022-08-07T19:26:25.216Z,101202.28
2022-08-07T19:32:10.832Z,101192.50
2022-08-07T19:37:56.447Z,101199.53
2022-08-07T19:43:45.077Z,101209.72
2022-08-07T19:49:00.076Z,101223.03
2022-08-07T19:54:31.282Z,101222.75
2022-08-07T19:59:42.083Z,101215.41
2022-08-07T20:04:51.860Z,101227.38
2022-08-07T20:10:34.000Z,101220.84
2022-08-07T20:15:37.192Z,101215.13
2022-08-07T20:20:42.452Z,101205.56
2022-08-07T20:25:58.445Z,101218.25
2022-08-07T20:31:10.659Z,101214.13
2022-08-07T20:36:33.530Z,101214.06
2022-08-07T20:41:40.653Z,101214.88
2022-08-07T20:47:04.313Z,101206.84
2022-08-07T20:52:50.465Z,101212.88
2022-08-07T20:58:03.981Z,101211.66
2022-08-07T21:03:19.288Z,101228.88
2022-08-07T21:09:13.851Z,101236.53
2022-08-07T21:20:30.007Z,101258.63
2022-08-07T21:26:19.702Z,101255.09
2022-08-07T21:32:47.066Z,101260.69
2022-08-07T21:38:31.088Z,101266.28
2022-08-07T21:43:57.071Z,101265.84
2022-08-07T21:49:28.098Z,101267.03
2022-08-07T21:54:58.038Z,101276.63
2022-08-07T22:00:28.858Z,101289.38
2022-08-07T22:05:48.707Z,101297.78
2022-08-07T22:11:02.450Z,101300.50
2022-08-07T22:16:43.879Z,101324.38
2022-08-07T22:22:04.662Z,101314.22
2022-08-07T22:28:07.948Z,101316.41
2022-08-07T22:33:57.086Z,101326.25
2022-08-07T22:39:51.743Z,101331.72
2022-08-07T22:45:03.598Z,101324.34
2022-08-07T22:50:41.469Z,101316.97
2022-08-07T22:56:16.852Z,101320.78
2022-08-07T23:02:03.617Z,101319.41
2022-08-07T23:07:42.983Z,101316.91
2022-08-07T23:13:17.889Z,101320.44
2022-08-07T23:19:19.458Z,101321.59
2022-08-07T23:25:28.479Z,101320.22
2022-08-07T23:31:13.907Z,101317.28
2022-08-07T23:37:19.828Z,101315.94
2022-08-07T23:42:53.358Z,101324.22
2022-08-07T23:48:18.589Z,101319.28
2022-08-07T23:53:49.515Z,101330.38
2022-08-07T23:59:10.321Z,101325.16
